sensor_id;sensor_type;location;lat;lon;timestamp;pressure;altitude;pressure_sealevel;temperature;humidity
73267;BME280;61495;53.400;7.608;2023-02-01T00:01:25;101394.34;;;4.89;92.35
73267;BME280;61495;53.400;7.608;2023-02-01T00:03:50;101391.69;;;4.89;92.41
73267;BME280;61495;53.400;7.608;2023-02-01T00:06:16;101397.66;;;4.91;92.02
73267;BME280;61495;53.400;7.608;2023-02-01T00:08:41;101395.66;;;4.93;92.62
73267;BME280;61495;53.400;7.608;2023-02-01T00:11:08;101386.72;;;4.94;92.04
73267;BME280;61495;53.400;7.608;2023-02-01T00:13:35;101390.34;;;4.93;92.04
73267;BME280;61495;53.400;7.608;2023-02-01T00:16:23;101385.03;;;4.93;92.34
73267;BME280;61495;53.400;7.608;2023-02-01T00:18:50;101392.88;;;4.95;91.92
73267;BME280;61495;53.400;7.608;2023-02-01T00:21:18;101396.38;;;4.95;92.22
73267;BME280;61495;53.400;7.608;2023-02-01T00:23:44;101382.06;;;4.96;91.95
73267;BME280;61495;53.400;7.608;2023-02-01T00:26:23;101379.44;;;4.96;92.16
73267;BME280;61495;53.400;7.608;2023-02-01T00:28:50;101383.91;;;4.96;92.35
73267;BME280;61495;53.400;7.608;2023-02-01T00:31:15;101378.44;;;4.97;91.87
73267;BME280;61495;53.400;7.608;2023-02-01T00:33:41;101370.47;;;4.97;91.69
73267;BME280;61495;53.400;7.608;2023-02-01T00:36:08;101379.44;;;4.96;92.05
73267;BME280;61495;53.400;7.608;2023-02-01T00:38:37;101361.84;;;4.95;91.94
73267;BME280;61495;53.400;7.608;2023-02-01T00:41:21;101367.00;;;4.97;91.49
73267;BME280;61495;53.400;7.608;2023-02-01T00:43:47;101371.31;;;4.98;91.63
73267;BME280;61495;53.400;7.608;2023-02-01T00:46:15;101365.00;;;4.99;91.87
73267;BME280;61495;53.400;7.608;2023-02-01T00:48:41;101366.66;;;5.00;91.72
73267;BME280;61495;53.400;7.608;2023-02-01T00:51:09;101366.84;;;4.98;91.67
73267;BME280;61495;53.400;7.608;2023-02-01T00:53:35;101360.53;;;4.99;91.90
73267;BME280;61495;53.400;7.608;2023-02-01T00:56:01;101360.53;;;4.99;91.85
73267;BME280;61495;53.400;7.608;2023-02-01T00:58:27;101353.56;;;4.98;92.02
73267;BME280;61495;53.400;7.608;2023-02-01T01:01:07;101359.22;;;5.03;91.58
73267;BME280;61495;53.400;7.608;2023-02-01T01:03:36;101348.59;;;5.03;92.04
73267;BME280;61495;53.400;7.608;2023-02-01T01:06:05;101342.63;;;5.01;91.83
73267;BME280;61495;53.400;7.608;2023-02-01T01:08:32;101343.28;;;5.03;92.12
73267;BME280;61495;53.400;7.608;2023-02-01T01:10:57;101343.63;;;5.00;92.20
73267;BME280;61495;53.400;7.608;2023-02-01T01:13:23;101342.31;;;5.04;92.23
73267;BME280;61495;53.400;7.608;2023-02-01T01:15:48;101343.13;;;5.05;92.49
73267;BME280;61495;53.400;7.608;2023-02-01T01:18:14;101343.28;;;5.03;92.06
73267;BME280;61495;53.400;7.608;2023-02-01T01:20:40;101339.34;;;5.08;92.02
73267;BME280;61495;53.400;7.608;2023-02-01T01:23:08;101332.34;;;5.07;92.12
73267;BME280;61495;53.400;7.608;2023-02-01T01:25:40;101329.72;;;5.07;91.99
73267;BME280;61495;53.400;7.608;2023-02-01T01:28:06;101335.69;;;5.09;91.87
73267;BME280;61495;53.400;7.608;2023-02-01T01:30:34;101318.91;;;5.08;91.55
73267;BME280;61495;53.400;7.608;2023-02-01T01:32:59;101320.75;;;5.08;91.87
73267;BME280;61495;53.400;7.608;2023-02-01T01:35:24;101312.78;;;5.08;91.50
73267;BME280;61495;53.400;7.608;2023-02-01T01:37:50;101316.13;;;5.10;91.33
73267;BME280;61495;53.400;7.608;2023-02-01T01:40:16;101304.13;;;5.05;91.75
73267;BME280;61495;53.400;7.608;2023-02-01T01:42:43;101301.16;;;5.09;91.53
73267;BME280;61495;53.400;7.608;2023-02-01T01:45:22;101302.16;;;5.08;91.66
73267;BME280;61495;53.400;7.608;2023-02-01T01:47:58;101294.03;;;5.09;91.29
73267;BME280;61495;53.400;7.608;2023-02-01T01:53:27;101283.25;;;5.11;91.36
73267;BME280;61495;53.400;7.608;2023-02-01T01:55:54;101271.94;;;5.09;91.51
73267;BME280;61495;53.400;7.608;2023-02-01T01:58:23;101273.44;;;5.11;91.80
73267;BME280;61495;53.400;7.608;2023-02-01T02:00:50;101270.00;;;5.11;92.13
73267;BME280;61495;53.400;7.608;2023-02-01T02:03:37;101271.94;;;5.09;92.97
73267;BME280;61495;53.400;7.608;2023-02-01T02:06:06;101265.00;;;5.08;93.48
73267;BME280;61495;53.400;7.608;2023-02-01T02:08:32;101257.19;;;5.06;93.34
73267;BME280;61495;53.400;7.608;2023-02-01T02:10:58;101249.06;;;5.08;93.93
73267;BME280;61495;53.400;7.608;2023-02-01T02:13:41;101254.53;;;5.06;94.42
73267;BME280;61495;53.400;7.608;2023-02-01T02:18:52;101245.72;;;5.05;94.07
73267;BME280;61495;53.400;7.608;2023-02-01T02:27:21;101255.03;;;5.01;94.35
73267;BME280;61495;53.400;7.608;2023-02-01T02:35:09;101253.31;;;4.92;95.97
73267;BME280;61495;53.400;7.608;2023-02-01T02:37:52;101241.03;;;4.91;96.70
73267;BME280;61495;53.400;7.608;2023-02-01T02:40:32;101233.25;;;4.90;96.39
73267;BME280;61495;53.400;7.608;2023-02-01T02:43:10;101235.72;;;4.91;96.48
73267;BME280;61495;53.400;7.608;2023-02-01T02:46:05;101231.41;;;4.90;96.57
73267;BME280;61495;53.400;7.608;2023-02-01T02:49:15;101220.13;;;4.88;96.81
73267;BME280;61495;53.400;7.608;2023-02-01T02:51:51;101215.78;;;4.87;96.98
73267;BME280;61495;53.400;7.608;2023-02-01T02:54:40;101211.31;;;4.88;97.04
73267;BME280;61495;53.400;7.608;2023-02-01T02:57:26;101202.19;;;4.82;96.99
73267;BME280;61495;53.400;7.608;2023-02-01T03:00:20;101204.38;;;4.87;96.65
73267;BME280;61495;53.400;7.608;2023-02-01T03:03:06;101195.72;;;4.85;97.16
73267;BME280;61495;53.400;7.608;2023-02-01T03:05:51;101191.25;;;4.85;96.96
73267;BME280;61495;53.400;7.608;2023-02-01T03:08:19;101194.22;;;4.82;97.05
73267;BME280;61495;53.400;7.608;2023-02-01T03:11:07;101201.34;;;4.82;97.00
73267;BME280;61495;53.400;7.608;2023-02-01T03:21:20;101173.25;;;4.63;97.15
73267;BME280;61495;53.400;7.608;2023-02-01T03:23:49;101177.56;;;4.64;97.44
73267;BME280;61495;53.400;7.608;2023-02-01T03:26:17;101169.91;;;4.61;97.63
73267;BME280;61495;53.400;7.608;2023-02-01T03:28:49;101161.63;;;4.64;97.86
73267;BME280;61495;53.400;7.608;2023-02-01T03:31:18;101164.94;;;4.66;97.94
73267;BME280;61495;53.400;7.608;2023-02-01T03:33:44;101140.41;;;4.64;98.38
73267;BME280;61495;53.400;7.608;2023-02-01T03:41:42;101137.63;;;4.66;98.68
73267;BME280;61495;53.400;7.608;2023-02-01T03:44:24;101131.47;;;4.65;98.37
73267;BME280;61495;53.400;7.608;2023-02-01T03:46:57;101127.66;;;4.68;98.53
73267;BME280;61495;53.400;7.608;2023-02-01T03:49:34;101122.16;;;4.69;98.46
73267;BME280;61495;53.400;7.608;2023-02-01T03:52:02;101118.53;;;4.70;98.42
73267;BME280;61495;53.400;7.608;2023-02-01T03:54:29;101118.53;;;4.70;98.57
73267;BME280;61495;53.400;7.608;2023-02-01T03:56:57;101107.94;;;4.70;98.57
73267;BME280;61495;53.400;7.608;2023-02-01T03:59:24;101114.91;;;4.71;98.38
73267;BME280;61495;53.400;7.608;2023-02-01T04:01:50;101113.22;;;4.70;98.48
73267;BME280;61495;53.400;7.608;2023-02-01T04:04:15;101119.06;;;4.74;97.65
73267;BME280;61495;53.400;7.608;2023-02-01T04:06:49;101120.72;;;4.75;97.49
73267;BME280;61495;53.400;7.608;2023-02-01T04:09:14;101128.69;;;4.75;97.94
73267;BME280;61495;53.400;7.608;2023-02-01T04:11:40;101110.91;;;4.75;97.85
73267;BME280;61495;53.400;7.608;2023-02-01T04:14:05;101102.94;;;4.75;97.82
73267;BME280;61495;53.400;7.608;2023-02-01T04:16:31;101087.72;;;4.77;97.83
73267;BME280;61495;53.400;7.608;2023-02-01T04:18:57;101100.16;;;4.77;97.50
73267;BME280;61495;53.400;7.608;2023-02-01T04:21:24;101106.94;;;4.79;97.55
73267;BME280;61495;53.400;7.608;2023-02-01T04:23:49;101105.28;;;4.78;97.46
73267;BME280;61495;53.400;7.608;2023-02-01T04:26:16;101124.88;;;4.77;98.51
73267;BME280;61495;53.400;7.608;2023-02-01T04:28:41;101105.28;;;4.78;98.01
73267;BME280;61495;53.400;7.608;2023-02-01T04:31:07;101104.63;;;4.76;98.45
73267;BME280;61495;53.400;7.608;2023-02-01T04:33:33;101109.09;;;4.76;98.18
73267;BME280;61495;53.400;7.608;2023-02-01T04:35:58;101109.28;;;4.74;98.39
73267;BME280;61495;53.400;7.608;2023-02-01T04:38:23;101117.22;;;4.74;98.19
73267;BME280;61495;53.400;7.608;2023-02-01T04:40:49;101113.88;;;4.72;98.30
73267;BME280;61495;53.400;7.608;2023-02-01T04:43:15;101109.41;;;4.73;98.42
73267;BME280;61495;53.400;7.608;2023-02-01T04:45:41;101108.59;;;4.72;98.29
73267;BME280;61495;53.400;7.608;2023-02-01T04:48:06;101104.28;;;4.71;98.09
73267;BME280;61495;53.400;7.608;2023-02-01T04:50:32;101095.50;;;4.71;98.15
73267;BME280;61495;53.400;7.608;2023-02-01T04:52:57;101103.44;;;4.71;98.56
73267;BME280;61495;53.400;7.608;2023-02-01T04:55:23;101100.63;;;4.72;98.47
73267;BME280;61495;53.400;7.608;2023-02-01T04:57:48;101092.97;;;4.69;98.54
73267;BME280;61495;53.400;7.608;2023-02-01T05:00:14;101104.28;;;4.71;98.32
73267;BME280;61495;53.400;7.608;2023-02-01T05:02:39;101089.19;;;4.72;98.76
73267;BME280;61495;53.400;7.608;2023-02-01T05:05:05;101102.28;;;4.73;98.72
73267;BME280;61495;53.400;7.608;2023-02-01T05:07:30;101096.97;;;4.73;99.31
73267;BME280;61495;53.400;7.608;2023-02-01T05:09:55;101094.34;;;4.73;99.65
73267;BME280;61495;53.400;7.608;2023-02-01T05:12:21;101088.03;;;4.74;99.59
73267;BME280;61495;53.400;7.608;2023-02-01T05:15:05;101107.28;;;4.76;99.44
73267;BME280;61495;53.400;7.608;2023-02-01T05:17:30;101093.34;;;4.74;99.70
73267;BME280;61495;53.400;7.608;2023-02-01T05:19:55;101111.59;;;4.77;100.00
73267;BME280;61495;53.400;7.608;2023-02-01T05:22:21;101093.03;;;4.77;99.34
73267;BME280;61495;53.400;7.608;2023-02-01T05:24:46;101091.34;;;4.76;99.09
73267;BME280;61495;53.400;7.608;2023-02-01T05:27:12;101101.97;;;4.76;99.09
73267;BME280;61495;53.400;7.608;2023-02-01T05:29:37;101103.78;;;4.76;99.06
73267;BME280;61495;53.400;7.608;2023-02-01T05:32:02;101098.66;;;4.74;99.02
73267;BME280;61495;53.400;7.608;2023-02-01T05:34:28;101098.66;;;4.74;98.63
73267;BME280;61495;53.400;7.608;2023-02-01T05:36:53;101096.00;;;4.74;98.54
73267;BME280;61495;53.400;7.608;2023-02-01T05:39:18;101086.38;;;4.73;98.55
73267;BME280;61495;53.400;7.608;2023-02-01T05:41:44;101083.06;;;4.71;98.56
73267;BME280;61495;53.400;7.608;2023-02-01T05:44:10;101089.19;;;4.72;98.32
73267;BME280;61495;53.400;7.608;2023-02-01T05:46:36;101099.81;;;4.72;98.05
73267;BME280;61495;53.400;7.608;2023-02-01T05:49:02;101110.56;;;4.70;98.30
73267;BME280;61495;53.400;7.608;2023-02-01T05:51:27;101126.34;;;4.72;98.26
73267;BME280;61495;53.400;7.608;2023-02-01T05:53:53;101112.25;;;4.71;98.34
73267;BME280;61495;53.400;7.608;2023-02-01T05:56:18;101113.09;;;4.72;98.53
73267;BME280;61495;53.400;7.608;2023-02-01T05:58:43;101117.22;;;4.74;98.49
73267;BME280;61495;53.400;7.608;2023-02-01T06:01:09;101121.53;;;4.75;98.36
73267;BME280;61495;53.400;7.608;2023-02-01T06:03:34;101115.09;;;4.78;98.96
73267;BME280;61495;53.400;7.608;2023-02-01T06:06:00;101118.56;;;4.78;98.99
73267;BME280;61495;53.400;7.608;2023-02-01T06:08:27;101133.50;;;4.79;99.48
73267;BME280;61495;53.400;7.608;2023-02-01T06:11:00;101131.69;;;4.80;99.85
73267;BME280;61495;53.400;7.608;2023-02-01T06:13:26;101146.75;;;4.79;100.00
73267;BME280;61495;53.400;7.608;2023-02-01T06:15:51;101140.47;;;4.80;99.84
73267;BME280;61495;53.400;7.608;2023-02-01T06:18:17;101133.34;;;4.81;100.00
73267;BME280;61495;53.400;7.608;2023-02-01T06:20:43;101140.16;;;4.83;100.00
73267;BME280;61495;53.400;7.608;2023-02-01T06:23:08;101124.53;;;4.80;99.77
73267;BME280;61495;53.400;7.608;2023-02-01T06:25:34;101132.00;;;4.85;100.00
73267;BME280;61495;53.400;7.608;2023-02-01T06:28:02;101141.63;;;4.86;100.00
73267;BME280;61495;53.400;7.608;2023-02-01T06:30:31;101137.81;;;4.88;99.55
73267;BME280;61495;53.400;7.608;2023-02-01T06:32:56;101137.81;;;4.88;99.93
73267;BME280;61495;53.400;7.608;2023-02-01T06:35:21;101149.09;;;4.90;99.10
73267;BME280;61495;53.400;7.608;2023-02-01T06:37:47;101134.66;;;4.93;98.57
73267;BME280;61495;53.400;7.608;2023-02-01T06:40:12;101132.19;;;4.91;98.30
73267;BME280;61495;53.400;7.608;2023-02-01T06:42:38;101137.16;;;4.86;97.97
73267;BME280;61495;53.400;7.608;2023-02-01T06:45:03;101152.78;;;4.89;97.53
73267;BME280;61495;53.400;7.608;2023-02-01T06:47:29;101136.16;;;4.87;97.06
73267;BME280;61495;53.400;7.608;2023-02-01T06:49:54;101143.78;;;4.82;96.27
73267;BME280;61495;53.400;7.608;2023-02-01T06:52:20;101136.16;;;4.79;95.94
73267;BME280;61495;53.400;7.608;2023-02-01T06:54:45;101132.97;;;4.76;95.96
73267;BME280;61495;53.400;7.608;2023-02-01T06:57:10;101134.97;;;4.74;95.73
73267;BME280;61495;53.400;7.608;2023-02-01T06:59:36;101149.53;;;4.70;95.63
73267;BME280;61495;53.400;7.608;2023-02-01T07:02:01;101154.03;;;4.69;95.72
73267;BME280;61495;53.400;7.608;2023-02-01T07:04:27;101158.00;;;4.65;95.17
73267;BME280;61495;53.400;7.608;2023-02-01T07:06:52;101154.69;;;4.63;95.56
73267;BME280;61495;53.400;7.608;2023-02-01T07:09:17;101158.00;;;4.65;96.01
73267;BME280;61495;53.400;7.608;2023-02-01T07:11:42;101161.31;;;4.67;96.91
73267;BME280;61495;53.400;7.608;2023-02-01T07:14:10;101161.31;;;4.67;97.77
73267;BME280;61495;53.400;7.608;2023-02-01T07:16:36;101160.16;;;4.70;98.27
73267;BME280;61495;53.400;7.608;2023-02-01T07:19:02;101140.44;;;4.72;98.60
73267;BME280;61495;53.400;7.608;2023-02-01T07:21:27;101147.72;;;4.70;98.53
73267;BME280;61495;53.400;7.608;2023-02-01T07:23:54;101150.06;;;4.73;98.29
73267;BME280;61495;53.400;7.608;2023-02-01T07:26:20;101167.66;;;4.74;98.91
73267;BME280;61495;53.400;7.608;2023-02-01T07:28:45;101156.03;;;4.75;98.55
73267;BME280;61495;53.400;7.608;2023-02-01T07:31:14;101166.63;;;4.75;98.14
73267;BME280;61495;53.400;7.608;2023-02-01T07:33:50;101175.44;;;4.76;97.89
73267;BME280;61495;53.400;7.608;2023-02-01T07:36:20;101179.09;;;4.75;97.79
73267;BME280;61495;53.400;7.608;2023-02-01T07:38:46;101167.34;;;4.77;97.39
73267;BME280;61495;53.400;7.608;2023-02-01T07:41:14;101168.97;;;4.78;97.22
73267;BME280;61495;53.400;7.608;2023-02-01T07:43:40;101177.63;;;4.80;96.68
73267;BME280;61495;53.400;7.608;2023-02-01T07:46:06;101163.34;;;4.81;95.81
73267;BME280;61495;53.400;7.608;2023-02-01T07:48:32;101174.66;;;4.83;95.98
73267;BME280;61495;53.400;7.608;2023-02-01T07:51:13;101177.31;;;4.83;95.63
73267;BME280;61495;53.400;7.608;2023-02-01T07:53:39;101185.28;;;4.83;95.91
73267;BME280;61495;53.400;7.608;2023-02-01T07:56:13;101182.28;;;4.86;95.77
73267;BME280;61495;53.400;7.608;2023-02-01T07:58:40;101179.31;;;4.89;95.43
73267;BME280;61495;53.400;7.608;2023-02-01T08:01:05;101176.66;;;4.89;95.58
73267;BME280;61495;53.400;7.608;2023-02-01T08:03:53;101180.97;;;4.90;95.44
73267;BME280;61495;53.400;7.608;2023-02-01T08:06:19;101187.75;;;4.93;95.80
73267;BME280;61495;53.400;7.608;2023-02-01T08:08:46;101176.16;;;4.94;95.71
73267;BME280;61495;53.400;7.608;2023-02-01T08:11:12;101178.81;;;4.94;96.08
73267;BME280;61495;53.400;7.608;2023-02-01T08:13:38;101171.03;;;4.92;96.05
73267;BME280;61495;53.400;7.608;2023-02-01T08:16:05;101179.31;;;4.97;96.17
73267;BME280;61495;53.400;7.608;2023-02-01T08:18:32;101183.34;;;5.01;96.26
73267;BME280;61495;53.400;7.608;2023-02-01T08:21:03;101177.69;;;5.04;95.97
73267;BME280;61495;53.400;7.608;2023-02-01T08:23:29;101182.00;;;5.05;95.83
73267;BME280;61495;53.400;7.608;2023-02-01T08:26:04;101177.38;;;5.08;96.33
73267;BME280;61495;53.400;7.608;2023-02-01T08:28:29;101181.66;;;5.09;95.95
73267;BME280;61495;53.400;7.608;2023-02-01T08:30:55;101186.84;;;5.10;95.89
73267;BME280;61495;53.400;7.608;2023-02-01T08:33:20;101184.00;;;5.12;95.85
73267;BME280;61495;53.400;7.608;2023-02-01T08:35:45;101184.69;;;5.14;96.08
73267;BME280;61495;53.400;7.608;2023-02-01T08:38:12;101185.34;;;5.16;96.07
73267;BME280;61495;53.400;7.608;2023-02-01T08:40:37;101168.25;;;5.18;96.09
73267;BME280;61495;53.400;7.608;2023-02-01T08:43:02;101166.59;;;5.17;96.16
73267;BME280;61495;53.400;7.608;2023-02-01T08:45:28;101162.75;;;5.20;95.84
73267;BME280;61495;53.400;7.608;2023-02-01T08:47:56;101159.13;;;5.21;96.25
73267;BME280;61495;53.400;7.608;2023-02-01T08:50:22;101165.28;;;5.21;96.21
73267;BME280;61495;53.400;7.608;2023-02-01T08:52:48;101175.38;;;5.26;95.94
73267;BME280;61495;53.400;7.608;2023-02-01T08:55:14;101154.81;;;5.28;96.38
73267;BME280;61495;53.400;7.608;2023-02-01T08:57:41;101161.78;;;5.29;96.41
73267;BME280;61495;53.400;7.608;2023-02-01T09:00:12;101160.78;;;5.30;96.10
73267;BME280;61495;53.400;7.608;2023-02-01T09:02:38;101163.13;;;5.33;96.54
73267;BME280;61495;53.400;7.608;2023-02-01T09:05:04;101147.69;;;5.36;96.31
73267;BME280;61495;53.400;7.608;2023-02-01T09:07:32;101143.22;;;5.37;95.93
73267;BME280;61495;53.400;7.608;2023-02-01T09:09:57;101142.88;;;5.40;96.02
73267;BME280;61495;53.400;7.608;2023-02-01T09:12:27;101138.41;;;5.40;95.95
73267;BME280;61495;53.400;7.608;2023-02-01T09:14:52;101141.72;;;5.42;95.90
73267;BME280;61495;53.400;7.608;2023-02-01T09:17:17;101144.19;;;5.44;95.75
73267;BME280;61495;53.400;7.608;2023-02-01T09:19:43;101142.22;;;5.46;95.50
73267;BME280;61495;53.400;7.608;2023-02-01T09:22:08;101141.19;;;5.47;96.13
73267;BME280;61495;53.400;7.608;2023-02-01T09:24:33;101134.06;;;5.47;95.70
73267;BME280;61495;53.400;7.608;2023-02-01T09:26:59;101134.91;;;5.48;95.73
73267;BME280;61495;53.400;7.608;2023-02-01T09:29:24;101136.56;;;5.49;95.88
73267;BME280;61495;53.400;7.608;2023-02-01T09:31:49;101129.59;;;5.48;95.39
73267;BME280;61495;53.400;7.608;2023-02-01T09:34:15;101123.63;;;5.46;95.50
73267;BME280;61495;53.400;7.608;2023-02-01T09:36:40;101128.41;;;5.50;95.37
73267;BME280;61495;53.400;7.608;2023-02-01T09:39:06;101127.59;;;5.50;95.67
73267;BME280;61495;53.400;7.608;2023-02-01T09:47:23;101106.31;;;5.50;95.15
73267;BME280;61495;53.400;7.608;2023-02-01T09:50:14;101103.53;;;5.51;95.06
73267;BME280;61495;53.400;7.608;2023-02-01T09:53:06;101104.34;;;5.52;95.62
73267;BME280;61495;53.400;7.608;2023-02-01T09:55:42;101096.88;;;5.47;96.02
73267;BME280;61495;53.400;7.608;2023-02-01T09:58:13;101086.56;;;5.52;96.26
73267;BME280;61495;53.400;7.608;2023-02-01T10:00:49;101086.75;;;5.51;96.44
73267;BME280;61495;53.400;7.608;2023-02-01T10:03:16;101091.06;;;5.52;96.66
73267;BME280;61495;53.400;7.608;2023-02-01T10:05:59;101080.25;;;5.53;96.34
73267;BME280;61495;53.400;7.608;2023-02-01T10:11:22;101073.78;;;5.56;96.47
73267;BME280;61495;53.400;7.608;2023-02-01T10:14:17;101065.63;;;5.49;96.44
73267;BME280;61495;53.400;7.608;2023-02-01T10:25:23;101046.38;;;5.47;97.58
73267;BME280;61495;53.400;7.608;2023-02-01T10:27:51;101038.75;;;5.44;97.80
73267;BME280;61495;53.400;7.608;2023-02-01T10:30:25;101037.91;;;5.44;97.71
73267;BME280;61495;53.400;7.608;2023-02-01T10:33:07;101019.50;;;5.42;98.19
73267;BME280;61495;53.400;7.608;2023-02-01T10:35:38;101001.06;;;5.41;98.58
73267;BME280;61495;53.400;7.608;2023-02-01T10:38:05;101012.53;;;5.41;98.01
73267;BME280;61495;53.400;7.608;2023-02-01T10:40:37;100999.91;;;5.35;97.98
73267;BME280;61495;53.400;7.608;2023-02-01T10:43:03;100993.44;;;5.30;97.83
73267;BME280;61495;53.400;7.608;2023-02-01T10:45:30;100987.34;;;5.21;98.10
73267;BME280;61495;53.400;7.608;2023-02-01T10:47:58;100993.16;;;5.17;98.55
73267;BME280;61495;53.400;7.608;2023-02-01T10:50:44;100976.84;;;5.20;99.09
73267;BME280;61495;53.400;7.608;2023-02-01T10:55:55;100972.38;;;5.20;99.55
73267;BME280;61495;53.400;7.608;2023-02-01T10:58:27;100969.91;;;5.19;100.00
73267;BME280;61495;53.400;7.608;2023-02-01T11:01:04;100957.97;;;5.15;100.00
73267;BME280;61495;53.400;7.608;2023-02-01T11:06:00;100945.22;;;5.10;100.00
73267;BME280;61495;53.400;7.608;2023-02-01T11:08:26;100934.41;;;5.12;100.00
73267;BME280;61495;53.400;7.608;2023-02-01T11:11:00;100921.31;;;5.10;100.00
73267;BME280;61495;53.400;7.608;2023-02-01T11:13:32;100904.19;;;5.13;100.00
73267;BME280;61495;53.400;7.608;2023-02-01T11:16:02;100913.84;;;5.14;100.00
73267;BME280;61495;53.400;7.608;2023-02-01T11:18:39;100940.06;;;5.17;100.00
73267;BME280;61495;53.400;7.608;2023-02-01T11:21:06;100912.66;;;5.16;100.00
73267;BME280;61495;53.400;7.608;2023-02-01T11:23:33;100957.97;;;5.15;100.00
73267;BME280;61495;53.400;7.608;2023-02-01T11:26:09;101032.13;;;5.08;99.31
73267;BME280;61495;53.400;7.608;2023-02-01T11:28:38;101055.53;;;4.88;97.14
73267;BME280;61495;53.400;7.608;2023-02-01T11:31:09;101065.16;;;4.73;96.23
73267;BME280;61495;53.400;7.608;2023-02-01T11:33:47;101041.91;;;4.67;95.60
73267;BME280;61495;53.400;7.608;2023-02-01T11:36:17;101052.72;;;4.66;95.93
73267;BME280;61495;53.400;7.608;2023-02-01T11:39:25;101039.91;;;4.61;95.45
73267;BME280;61495;53.400;7.608;2023-02-01T11:42:13;101056.66;;;4.62;96.33
73267;BME280;61495;53.400;7.608;2023-02-01T11:44:47;101073.41;;;4.54;95.43
73267;BME280;61495;53.400;7.608;2023-02-01T11:47:28;101074.06;;;4.48;95.55
73267;BME280;61495;53.400;7.608;2023-02-01T11:49:59;101067.41;;;4.44;95.81
73267;BME280;61495;53.400;7.608;2023-02-01T11:52:41;101094.91;;;4.43;95.08
73267;BME280;61495;53.400;7.608;2023-02-01T12:03:40;101071.66;;;4.29;96.03
73267;BME280;61495;53.400;7.608;2023-02-01T12:09:21;101071.19;;;4.33;96.94
73267;BME280;61495;53.400;7.608;2023-02-01T12:25:27;101064.44;;;4.55;99.29
73267;BME280;61495;53.400;7.608;2023-02-01T12:28:00;101060.47;;;4.51;98.11
73267;BME280;61495;53.400;7.608;2023-02-01T12:39:42;101057.88;;;4.91;98.99
73267;BME280;61495;53.400;7.608;2023-02-01T12:42:18;101059.88;;;4.97;99.04
73267;BME280;61495;53.400;7.608;2023-02-01T12:47:50;101062.22;;;5.17;99.33
73267;BME280;61495;53.400;7.608;2023-02-01T12:50:39;101048.91;;;5.25;99.01
73267;BME280;61495;53.400;7.608;2023-02-01T12:53:22;101073.47;;;5.43;99.44
73267;BME280;61495;53.400;7.608;2023-02-01T12:55:55;101057.34;;;5.52;98.82
73267;BME280;61495;53.400;7.608;2023-02-01T13:04:05;101050.13;;;5.77;98.12
73267;BME280;61495;53.400;7.608;2023-02-01T13:11:35;101056.59;;;5.99;97.25
73267;BME280;61495;53.400;7.608;2023-02-01T13:16:57;101042.75;;;6.11;96.95
73267;BME280;61495;53.400;7.608;2023-02-01T13:19:29;101036.56;;;6.19;96.62
73267;BME280;61495;53.400;7.608;2023-02-01T13:22:05;101034.03;;;6.26;96.61
73267;BME280;61495;53.400;7.608;2023-02-01T13:24:48;101036.03;;;6.24;95.29
73267;BME280;61495;53.400;7.608;2023-02-01T13:27:16;101047.34;;;6.26;95.21
73267;BME280;61495;53.400;7.608;2023-02-01T13:30:26;101044.81;;;6.32;95.27
73267;BME280;61495;53.400;7.608;2023-02-01T13:33:22;101043.22;;;6.46;95.46
73267;BME280;61495;53.400;7.608;2023-02-01T13:36:05;101043.88;;;6.48;95.11
73267;BME280;61495;53.400;7.608;2023-02-01T13:41:25;101051.88;;;6.48;94.11
73267;BME280;61495;53.400;7.608;2023-02-01T13:43:58;101047.03;;;6.51;94.11
73267;BME280;61495;53.400;7.608;2023-02-01T13:46:24;101059.47;;;6.59;93.93
73267;BME280;61495;53.400;7.608;2023-02-01T13:48:57;101051.50;;;6.59;93.54
73267;BME280;61495;53.400;7.608;2023-02-01T13:51:44;101057.75;;;6.66;93.52
73267;BME280;61495;53.400;7.608;2023-02-01T13:54:38;101049.59;;;6.67;92.86
73267;BME280;61495;53.400;7.608;2023-02-01T13:57:06;101063.75;;;6.68;93.06
73267;BME280;61495;53.400;7.608;2023-02-01T14:05:11;101064.53;;;6.68;91.78
73267;BME280;61495;53.400;7.608;2023-02-01T14:13:38;101076.03;;;6.69;91.49
73267;BME280;61495;53.400;7.608;2023-02-01T14:23:43;101071.47;;;6.78;91.13
73267;BME280;61495;53.400;7.608;2023-02-01T14:26:13;101080.59;;;6.83;90.79
73267;BME280;61495;53.400;7.608;2023-02-01T14:28:46;101078.59;;;6.85;90.72
73267;BME280;61495;53.400;7.608;2023-02-01T14:31:34;101076.94;;;6.84;90.04
73267;BME280;61495;53.400;7.608;2023-02-01T14:34:04;101074.91;;;6.86;89.34
73267;BME280;61495;53.400;7.608;2023-02-01T14:36:44;101081.78;;;6.81;88.56
73267;BME280;61495;53.400;7.608;2023-02-01T14:39:22;101088.63;;;6.75;88.92
73267;BME280;61495;53.400;7.608;2023-02-01T14:41:53;101084.31;;;6.74;88.78
73267;BME280;61495;53.400;7.608;2023-02-01T14:44:26;101089.19;;;6.70;88.85
73267;BME280;61495;53.400;7.608;2023-02-01T14:47:27;101108.31;;;6.66;89.59
73267;BME280;61495;53.400;7.608;2023-02-01T15:01:18;101099.25;;;6.52;90.51
73267;BME280;61495;53.400;7.608;2023-02-01T15:03:49;101093.59;;;6.55;90.53
73267;BME280;61495;53.400;7.608;2023-02-01T15:08:53;101073.13;;;6.56;90.90
73267;BME280;61495;53.400;7.608;2023-02-01T15:11:19;101077.44;;;6.57;90.93
73267;BME280;61495;53.400;7.608;2023-02-01T15:13:50;101093.59;;;6.55;90.64
73267;BME280;61495;53.400;7.608;2023-02-01T15:16:18;101127.69;;;6.52;90.84
73267;BME280;61495;53.400;7.608;2023-02-01T15:18:43;101133.75;;;6.38;90.19
73267;BME280;61495;53.400;7.608;2023-02-01T15:21:23;101140.94;;;6.29;89.49
73267;BME280;61495;53.400;7.608;2023-02-01T15:23:50;101133.81;;;6.22;89.27
73267;BME280;61495;53.400;7.608;2023-02-01T15:26:30;101130.84;;;6.17;89.70
73267;BME280;61495;53.400;7.608;2023-02-01T15:28:59;101118.88;;;6.12;89.34
73267;BME280;61495;53.400;7.608;2023-02-01T15:31:39;101129.16;;;6.15;89.99
73267;BME280;61495;53.400;7.608;2023-02-01T15:34:06;101139.19;;;6.05;89.69
73267;BME280;61495;53.400;7.608;2023-02-01T15:36:32;101131.84;;;6.07;90.63